Time;durP1;ratioP1;P1;durP2;ratioP2;P2;SDS_P1;SDS_P2;PMS_P1;PMS_P2;Temp;Humidity;BMP_temperature;BMP_pressure;BME280_temperature;BME280_humidity;BME280_pressure;Samples;Min_cycle;Max_cycle;Signal;HPM_P1;HPM_P2
2022/01/11 00:02:16;;;;;;;73.93;24.50;;;;;;;;;;4970489;28;100079;-68
2022/01/11 00:04:43;;;;;;;76.82;22.85;;;;;;;;;;4978591;28;101328;-68
2022/01/11 00:07:13;;;;;;;48.92;20.15;;;;;;;;;;4979887;28;100254;-68
2022/01/11 00:09:42;;;;;;;62.17;23.35;;;;;;;;;;4976723;28;100023;-69
2022/01/11 00:12:10;;;;;;;60.50;23.50;;;;;;;;;;4985023;28;100310;-68
2022/01/11 00:14:36;;;;;;;86.93;24.45;;;;;;;;;;4973559;28;98672;-68
2022/01/11 00:17:03;;;;;;;48.22;23.88;;;;;;;;;;4977200;28;99610;-68
2022/01/11 00:19:29;;;;;;;73.15;24.75;;;;;;;;;;4981244;28;99083;-68
2022/01/11 00:21:57;;;;;;;79.78;25.75;;;;;;;;;;4980877;28;99230;-68
2022/01/11 00:24:33;;;;;;;62.17;24.20;;;;;;;;;;4975354;28;102393;-68
2022/01/11 00:27:05;;;;;;;48.20;23.85;;;;;;;;;;4978163;28;98721;-68
2022/01/11 00:29:32;;;;;;;69.75;24.13;;;;;;;;;;4980760;28;99592;-68
2022/01/11 00:32:08;;;;;;;71.07;24.07;;;;;;;;;;4985623;28;101912;-68
2022/01/11 00:34:49;;;;;;;80.32;24.00;;;;;;;;;;4978728;28;98652;-68
2022/01/11 00:37:17;;;;;;;66.32;23.23;;;;;;;;;;4991123;28;103537;-68
2022/01/11 00:39:45;;;;;;;51.33;24.92;;;;;;;;;;4989727;28;101917;-69
2022/01/11 00:42:13;;;;;;;76.38;23.20;;;;;;;;;;4976840;28;99067;-69
2022/01/11 00:44:39;;;;;;;88.22;24.42;;;;;;;;;;5001754;27;102567;-69
2022/01/11 00:47:08;;;;;;;83.10;27.10;;;;;;;;;;4977810;28;97883;-69
2022/01/11 00:49:35;;;;;;;78.95;26.13;;;;;;;;;;4974053;28;99112;-69
2022/01/11 00:52:02;;;;;;;43.63;19.92;;;;;;;;;;4968107;28;100753;-69
2022/01/11 00:54:28;;;;;;;73.57;25.10;;;;;;;;;;4973401;28;99316;-69
2022/01/11 00:56:54;;;;;;;69.70;23.73;;;;;;;;;;4977906;28;99889;-69
2022/01/11 00:59:21;;;;;;;58.35;24.73;;;;;;;;;;4980575;28;99169;-69
2022/01/11 01:01:47;;;;;;;79.15;25.45;;;;;;;;;;4981424;28;98714;-69
2022/01/11 01:04:15;;;;;;;59.80;24.52;;;;;;;;;;4975785;28;99695;-69
2022/01/11 01:06:44;;;;;;;65.60;25.23;;;;;;;;;;4967976;28;99125;-69
2022/01/11 01:09:12;;;;;;;79.13;25.55;;;;;;;;;;4971741;28;99981;-69
2022/01/11 01:11:45;;;;;;;77.78;25.10;;;;;;;;;;5016388;28;98465;-69
2022/01/11 01:14:11;;;;;;;86.70;28.85;;;;;;;;;;4981462;28;99195;-69
2022/01/11 01:16:38;;;;;;;110.65;26.98;;;;;;;;;;4988406;28;101077;-69
2022/01/11 01:19:15;;;;;;;94.60;26.77;;;;;;;;;;5002826;27;103032;-69
2022/01/11 01:21:41;;;;;;;100.50;27.00;;;;;;;;;;4986757;28;98683;-69
2022/01/11 01:24:09;;;;;;;100.43;26.13;;;;;;;;;;5010886;28;100005;-69
2022/01/11 01:26:37;;;;;;;97.72;27.30;;;;;;;;;;4984642;28;100195;-69
2022/01/11 01:29:03;;;;;;;122.68;29.52;;;;;;;;;;4987447;28;102015;-69
2022/01/11 01:31:30;;;;;;;86.75;24.27;;;;;;;;;;4970522;28;99914;-69
2022/01/11 01:33:56;;;;;;;101.00;26.08;;;;;;;;;;4979671;28;99079;-69
2022/01/11 01:36:23;;;;;;;110.53;28.55;;;;;;;;;;4978768;28;100250;-69
2022/01/11 01:38:49;;;;;;;139.65;30.10;;;;;;;;;;4979879;28;99307;-69
2022/01/11 01:41:18;;;;;;;125.13;29.65;;;;;;;;;;4977490;28;99245;-69
2022/01/11 01:43:47;;;;;;;109.82;27.63;;;;;;;;;;4976947;28;99906;-69
2022/01/11 01:46:15;;;;;;;80.97;26.02;;;;;;;;;;4982129;28;100062;-69
2022/01/11 01:48:41;;;;;;;89.18;26.65;;;;;;;;;;4972114;28;98983;-69
2022/01/11 01:51:08;;;;;;;128.55;30.67;;;;;;;;;;4972885;28;100475;-69
2022/01/11 01:53:36;;;;;;;103.75;25.52;;;;;;;;;;4984648;28;98670;-68
2022/01/11 01:56:02;;;;;;;85.30;27.80;;;;;;;;;;4976065;28;99187;-69
2022/01/11 01:58:29;;;;;;;63.33;23.98;;;;;;;;;;4973114;28;102133;-69
2022/01/11 02:01:02;;;;;;;61.97;25.17;;;;;;;;;;4987191;28;97884;-69
2022/01/11 02:03:31;;;;;;;81.03;27.63;;;;;;;;;;4977532;28;98710;-69
2022/01/11 02:05:59;;;;;;;107.60;25.75;;;;;;;;;;4969004;28;100431;-69
2022/01/11 02:08:25;;;;;;;61.63;29.25;;;;;;;;;;4971658;28;99549;-69
2022/01/11 02:10:53;;;;;;;63.60;25.20;;;;;;;;;;4986329;28;99248;-69
2022/01/11 02:13:19;;;;;;;72.03;26.65;;;;;;;;;;5001606;27;98612;-69
2022/01/11 02:15:46;;;;;;;60.83;27.50;;;;;;;;;;4984396;28;99419;-69
2022/01/11 02:18:18;;;;;;;75.43;27.60;;;;;;;;;;4976907;28;99543;-69
2022/01/11 02:20:46;;;;;;;64.43;26.63;;;;;;;;;;4977777;28;98610;-69
2022/01/11 02:23:19;;;;;;;52.45;26.30;;;;;;;;;;4985819;28;100011;-69
2022/01/11 02:25:46;;;;;;;65.68;27.77;;;;;;;;;;4988012;28;98726;-69
2022/01/11 02:28:15;;;;;;;49.38;25.00;;;;;;;;;;5006978;27;98827;-69
2022/01/11 02:30:42;;;;;;;57.90;26.50;;;;;;;;;;4979552;28;100237;-69
2022/01/11 02:33:20;;;;;;;55.53;27.63;;;;;;;;;;4968007;28;99436;-69
2022/01/11 02:35:49;;;;;;;63.25;28.65;;;;;;;;;;4974210;28;99877;-69
2022/01/11 02:38:17;;;;;;;47.33;25.55;;;;;;;;;;4981780;28;101636;-69
2022/01/11 02:40:44;;;;;;;52.70;27.25;;;;;;;;;;4975901;28;100907;-69
2022/01/11 02:43:12;;;;;;;53.65;26.75;;;;;;;;;;5008503;27;99011;-69
2022/01/11 02:45:39;;;;;;;39.95;24.30;;;;;;;;;;4997046;28;101393;-68
2022/01/11 02:48:06;;;;;;;36.15;22.35;;;;;;;;;;4978455;28;98763;-69
2022/01/11 02:50:34;;;;;;;41.50;24.70;;;;;;;;;;4986129;28;101802;-69
2022/01/11 02:53:01;;;;;;;37.90;24.73;;;;;;;;;;5000124;27;98625;-69
2022/01/11 02:55:27;;;;;;;41.60;23.60;;;;;;;;;;4976458;28;101096;-69
2022/01/11 02:57:55;;;;;;;35.65;22.38;;;;;;;;;;4985322;28;100931;-69
2022/01/11 03:00:25;;;;;;;40.10;23.13;;;;;;;;;;4977388;28;98787;-69
2022/01/11 03:02:51;;;;;;;39.20;23.10;;;;;;;;;;5007461;27;100972;-69
2022/01/11 03:05:22;;;;;;;36.83;20.52;;;;;;;;;;4965915;28;100599;-69
2022/01/11 03:07:50;;;;;;;32.97;21.08;;;;;;;;;;5002185;27;98669;-69
2022/01/11 03:10:51;;;;;;;35.92;22.83;;;;;;;;;;4985199;28;101334;-69
2022/01/11 03:13:11;;;;;;;38.75;22.20;;;;;;;;;;4975470;28;100813;-69
2022/01/11 03:15:38;;;;;;;36.55;21.90;;;;;;;;;;4977556;28;101396;-68
2022/01/11 03:18:08;;;;;;;41.22;22.70;;;;;;;;;;4995180;28;101630;-69
2022/01/11 03:20:41;;;;;;;38.65;23.08;;;;;;;;;;4972943;28;98746;-69
2022/01/11 03:23:10;;;;;;;37.42;22.67;;;;;;;;;;4981348;28;100089;-69
2022/01/11 03:25:37;;;;;;;43.30;24.00;;;;;;;;;;4999347;27;99709;-69
2022/01/11 03:28:04;;;;;;;40.70;23.67;;;;;;;;;;4967514;28;98669;-69
2022/01/11 03:30:32;;;;;;;36.70;22.25;;;;;;;;;;4982883;28;98947;-69
2022/01/11 03:32:59;;;;;;;44.58;23.98;;;;;;;;;;4973291;28;100533;-68
2022/01/11 03:35:31;;;;;;;40.97;25.15;;;;;;;;;;5016723;27;100244;-69
2022/01/11 03:37:58;;;;;;;41.72;24.73;;;;;;;;;;4985036;28;102264;-68
2022/01/11 03:40:26;;;;;;;48.08;26.25;;;;;;;;;;4981136;28;99360;-68
2022/01/11 03:42:53;;;;;;;44.40;26.48;;;;;;;;;;4986211;28;99143;-68
2022/01/11 03:45:21;;;;;;;37.33;20.17;;;;;;;;;;5003071;28;100399;-69
2022/01/11 03:47:52;;;;;;;45.90;25.33;;;;;;;;;;4982087;28;99629;-69
2022/01/11 03:50:20;;;;;;;41.28;22.42;;;;;;;;;;5010021;27;101532;-69
2022/01/11 03:52:47;;;;;;;42.33;25.10;;;;;;;;;;4988013;28;101479;-69
2022/01/11 03:55:31;;;;;;;44.30;25.65;;;;;;;;;;4980030;28;99362;-68
2022/01/11 03:57:58;;;;;;;36.00;22.15;;;;;;;;;;4972931;28;101939;-69
2022/01/11 04:00:24;;;;;;;42.47;24.02;;;;;;;;;;4975529;28;98573;-69
2022/01/11 04:02:53;;;;;;;47.05;24.00;;;;;;;;;;4988039;28;99099;-68
2022/01/11 04:05:19;;;;;;;46.17;26.88;;;;;;;;;;4986911;28;99602;-69
2022/01/11 04:07:46;;;;;;;46.78;24.63;;;;;;;;;;4975171;28;98549;-69
2022/01/11 04:10:12;;;;;;;42.92;24.30;;;;;;;;;;4974187;28;101879;-69
2022/01/11 04:12:40;;;;;;;40.90;23.38;;;;;;;;;;4987290;28;102480;-68
2022/01/11 04:15:06;;;;;;;46.50;25.08;;;;;;;;;;4973501;28;98910;-69
2022/01/11 04:17:33;;;;;;;46.60;23.63;;;;;;;;;;4985123;28;101458;-69
2022/01/11 04:19:59;;;;;;;41.28;22.95;;;;;;;;;;4975437;28;99520;-69
2022/01/11 04:22:27;;;;;;;37.65;22.35;;;;;;;;;;4985687;28;99835;-69
2022/01/11 04:24:53;;;;;;;47.65;25.15;;;;;;;;;;4972992;28;99390;-69
2022/01/11 04:27:20;;;;;;;47.00;25.60;;;;;;;;;;4987091;28;98538;-69
2022/01/11 04:29:46;;;;;;;50.13;26.23;;;;;;;;;;4987487;28;101623;-69
2022/01/11 04:32:13;;;;;;;48.75;26.58;;;;;;;;;;4969609;28;102354;-69
2022/01/11 04:34:39;;;;;;;44.80;23.85;;;;;;;;;;4978145;28;99198;-69
2022/01/11 04:37:06;;;;;;;49.95;26.77;;;;;;;;;;4975557;28;99907;-69
2022/01/11 04:39:34;;;;;;;51.55;26.15;;;;;;;;;;4979462;28;100108;-69
2022/01/11 04:42:02;;;;;;;48.50;26.52;;;;;;;;;;5009257;27;100366;-69
2022/01/11 04:44:29;;;;;;;44.72;24.95;;;;;;;;;;4968384;28;99258;-69
2022/01/11 04:46:56;;;;;;;53.92;28.38;;;;;;;;;;4974564;28;98587;-69
2022/01/11 04:49:22;;;;;;;45.63;25.95;;;;;;;;;;4985199;28;100810;-69
2022/01/11 04:51:51;;;;;;;53.45;28.33;;;;;;;;;;4984577;28;101299;-69
2022/01/11 04:54:17;;;;;;;58.40;29.30;;;;;;;;;;4995380;28;98332;-67
2022/01/11 04:56:43;;;;;;;56.20;28.50;;;;;;;;;;4979404;28;100587;-68
2022/01/11 04:59:11;;;;;;;60.50;30.02;;;;;;;;;;4979223;28;101805;-67
2022/01/11 05:01:40;;;;;;;58.20;29.65;;;;;;;;;;4996954;28;99344;-67
2022/01/11 05:04:07;;;;;;;53.80;29.42;;;;;;;;;;4985869;28;99428;-67
2022/01/11 05:06:34;;;;;;;55.50;28.48;;;;;;;;;;4984918;28;100807;-68
2022/01/11 05:09:02;;;;;;;55.63;29.75;;;;;;;;;;4986681;28;100526;-68
2022/01/11 05:11:28;;;;;;;45.70;23.98;;;;;;;;;;4997705;28;101921;-66
2022/01/11 05:13:56;;;;;;;55.60;25.77;;;;;;;;;;4985449;28;99232;-68
2022/01/11 05:16:32;;;;;;;60.38;27.85;;;;;;;;;;4986792;28;99968;-68
2022/01/11 05:18:59;;;;;;;50.80;27.75;;;;;;;;;;4976568;28;100839;-67
2022/01/11 05:21:25;;;;;;;53.03;28.23;;;;;;;;;;4976508;28;98591;-67
2022/01/11 05:23:52;;;;;;;55.13;25.92;;;;;;;;;;4973011;28;98821;-68
2022/01/11 05:26:18;;;;;;;53.33;28.25;;;;;;;;;;4983454;28;100789;-67
2022/01/11 05:28:45;;;;;;;53.97;28.30;;;;;;;;;;4987119;28;100784;-68
2022/01/11 05:31:11;;;;;;;54.13;26.52;;;;;;;;;;4983782;28;100335;-68
2022/01/11 05:33:38;;;;;;;55.08;24.85;;;;;;;;;;5012035;27;99879;-68
2022/01/11 05:36:04;;;;;;;54.83;28.33;;;;;;;;;;5002948;27;101800;-68
2022/01/11 05:38:33;;;;;;;52.90;26.23;;;;;;;;;;4984032;28;101807;-67
2022/01/11 05:40:59;;;;;;;58.60;28.65;;;;;;;;;;4987978;28;99105;-68
2022/01/11 05:43:26;;;;;;;62.40;29.88;;;;;;;;;;4976035;28;99913;-67
2022/01/11 05:45:52;;;;;;;56.05;27.33;;;;;;;;;;4971132;28;101090;-68
2022/01/11 05:48:20;;;;;;;56.78;27.90;;;;;;;;;;4982275;28;101762;-68
2022/01/11 05:50:47;;;;;;;56.08;27.67;;;;;;;;;;4984559;28;102821;-68
2022/01/11 05:53:14;;;;;;;62.08;29.65;;;;;;;;;;4993792;28;98771;-68
2022/01/11 05:55:42;;;;;;;52.05;25.85;;;;;;;;;;4970722;28;101945;-68
2022/01/11 05:58:12;;;;;;;53.42;26.90;;;;;;;;;;4983946;28;101489;-68
2022/01/11 06:00:38;;;;;;;58.40;29.50;;;;;;;;;;4967938;28;99342;-68
2022/01/11 06:03:05;;;;;;;66.18;28.10;;;;;;;;;;4976238;28;99288;-68
2022/01/11 06:05:39;;;;;;;62.00;30.37;;;;;;;;;;4984418;28;100331;-68
2022/01/11 06:08:09;;;;;;;53.65;28.05;;;;;;;;;;4977668;28;98635;-68
2022/01/11 06:10:37;;;;;;;61.38;27.02;;;;;;;;;;4969256;28;99263;-68
2022/01/11 06:13:04;;;;;;;58.42;28.55;;;;;;;;;;4986650;28;100629;-68
2022/01/11 06:15:31;;;;;;;73.65;30.70;;;;;;;;;;4984020;28;99488;-68
2022/01/11 06:17:59;;;;;;;58.97;29.98;;;;;;;;;;4977679;28;101671;-68
2022/01/11 06:20:27;;;;;;;64.82;31.05;;;;;;;;;;4984964;28;98717;-68
2022/01/11 06:22:54;;;;;;;49.60;28.05;;;;;;;;;;4975945;28;101518;-68
2022/01/11 06:25:20;;;;;;;62.17;30.17;;;;;;;;;;4971170;28;99800;-68
2022/01/11 06:27:47;;;;;;;62.15;31.58;;;;;;;;;;4984162;28;98644;-69
2022/01/11 06:30:16;;;;;;;48.45;25.33;;;;;;;;;;4984203;28;101764;-69
2022/01/11 06:32:44;;;;;;;51.75;27.75;;;;;;;;;;5011528;27;97867;-69
2022/01/11 06:35:16;;;;;;;49.63;25.00;;;;;;;;;;4983225;28;98634;-69
2022/01/11 06:37:46;;;;;;;50.30;28.13;;;;;;;;;;5007290;28;101941;-68
2022/01/11 06:40:14;;;;;;;54.25;27.85;;;;;;;;;;5013185;27;99614;-69
2022/01/11 06:42:40;;;;;;;54.70;28.63;;;;;;;;;;5004994;27;102829;-69
2022/01/11 06:45:07;;;;;;;57.67;30.20;;;;;;;;;;4974932;28;101063;-69
2022/01/11 06:47:34;;;;;;;55.58;27.92;;;;;;;;;;4981803;28;99831;-69
2022/01/11 06:50:00;;;;;;;60.75;29.15;;;;;;;;;;4969676;28;101307;-69
2022/01/11 06:52:28;;;;;;;50.75;28.10;;;;;;;;;;4974036;28;100596;-69
2022/01/11 06:54:54;;;;;;;54.38;28.23;;;;;;;;;;4973437;28;100074;-69
2022/01/11 06:57:21;;;;;;;61.10;30.10;;;;;;;;;;4976469;28;98852;-69
2022/01/11 06:59:49;;;;;;;56.15;29.50;;;;;;;;;;4975760;28;98654;-69
2022/01/11 07:02:19;;;;;;;58.53;29.60;;;;;;;;;;5003836;27;99193;-69
2022/01/11 07:04:56;;;;;;;62.53;30.77;;;;;;;;;;4982303;28;102317;-68
2022/01/11 07:07:23;;;;;;;56.60;29.60;;;;;;;;;;4992465;28;98738;-69
2022/01/11 07:09:50;;;;;;;57.88;28.67;;;;;;;;;;4975112;28;99041;-69
2022/01/11 07:12:17;;;;;;;55.15;30.15;;;;;;;;;;4975850;28;101530;-69
2022/01/11 07:14:44;;;;;;;63.58;29.05;;;;;;;;;;4967220;28;101644;-69
2022/01/11 07:17:11;;;;;;;62.38;29.20;;;;;;;;;;4988369;28;99266;-69
2022/01/11 07:19:38;;;;;;;51.35;26.77;;;;;;;;;;4990781;28;98728;-69
2022/01/11 07:22:09;;;;;;;52.72;28.20;;;;;;;;;;5012908;28;101320;-69
2022/01/11 07:24:38;;;;;;;49.33;27.17;;;;;;;;;;4985380;28;102470;-69
2022/01/11 07:27:04;;;;;;;58.03;30.38;;;;;;;;;;4993970;28;98759;-68
2022/01/11 07:29:31;;;;;;;53.63;30.05;;;;;;;;;;4985668;28;101950;-69
2022/01/11 07:31:57;;;;;;;53.17;28.98;;;;;;;;;;4996777;28;101429;-69
2022/01/11 07:34:26;;;;;;;57.22;30.52;;;;;;;;;;5003990;28;98892;-69
2022/01/11 07:36:52;;;;;;;51.35;29.98;;;;;;;;;;4976599;28;101776;-68
2022/01/11 07:39:18;;;;;;;60.33;31.80;;;;;;;;;;4988322;28;98790;-69
2022/01/11 07:41:45;;;;;;;45.75;25.70;;;;;;;;;;4991991;28;100776;-69
2022/01/11 07:44:30;;;;;;;44.38;25.48;;;;;;;;;;4981835;28;98752;-69
2022/01/11 07:46:57;;;;;;;45.50;27.35;;;;;;;;;;4990838;28;98088;-68
2022/01/11 07:49:29;;;;;;;47.10;25.40;;;;;;;;;;4988086;28;100712;-68
2022/01/11 07:51:56;;;;;;;56.65;29.75;;;;;;;;;;4970087;28;99349;-69
2022/01/11 07:54:24;;;;;;;48.70;27.65;;;;;;;;;;4978697;28;99320;-69
2022/01/11 07:56:50;;;;;;;44.80;25.48;;;;;;;;;;4976321;28;99707;-69
2022/01/11 07:59:17;;;;;;;48.60;26.85;;;;;;;;;;4975190;28;98649;-69
2022/01/11 08:01:45;;;;;;;45.97;27.48;;;;;;;;;;4976027;28;101534;-70
2022/01/11 08:04:14;;;;;;;46.60;25.95;;;;;;;;;;5001873;27;100458;-70
2022/01/11 08:06:46;;;;;;;44.83;26.85;;;;;;;;;;4972850;28;99625;-69
2022/01/11 08:09:23;;;;;;;47.60;25.95;;;;;;;;;;4987423;28;101366;-69
2022/01/11 08:11:50;;;;;;;48.25;26.58;;;;;;;;;;4986465;28;101353;-68
2022/01/11 08:14:17;;;;;;;40.17;25.08;;;;;;;;;;4968969;28;99605;-68
2022/01/11 08:16:44;;;;;;;45.78;28.77;;;;;;;;;;4971488;28;99874;-69
2022/01/11 08:19:11;;;;;;;41.55;24.73;;;;;;;;;;4978982;28;101929;-68
2022/01/11 08:21:39;;;;;;;50.55;26.83;;;;;;;;;;4977621;28;102616;-68
2022/01/11 08:24:06;;;;;;;36.45;22.88;;;;;;;;;;4984637;28;99240;-68
2022/01/11 08:26:33;;;;;;;40.53;23.65;;;;;;;;;;5008151;27;98887;-68
2022/01/11 08:28:59;;;;;;;36.75;22.67;;;;;;;;;;4975174;28;99135;-68
2022/01/11 08:31:26;;;;;;;37.13;23.70;;;;;;;;;;4984567;28;101419;-68
2022/01/11 08:33:54;;;;;;;44.25;25.08;;;;;;;;;;4974235;28;98669;-68
2022/01/11 08:36:21;;;;;;;43.40;24.05;;;;;;;;;;4987057;28;99639;-69
2022/01/11 08:38:47;;;;;;;41.00;22.92;;;;;;;;;;4978524;28;101951;-69
2022/01/11 08:41:14;;;;;;;37.85;22.83;;;;;;;;;;5019002;27;98908;-68
2022/01/11 08:43:40;;;;;;;41.17;23.70;;;;;;;;;;4984378;28;102640;-68
2022/01/11 08:46:07;;;;;;;42.55;23.88;;;;;;;;;;4975895;28;98951;-68
2022/01/11 08:48:47;;;;;;;40.05;24.08;;;;;;;;;;4986771;28;101594;-67
2022/01/11 08:51:13;;;;;;;35.75;22.25;;;;;;;;;;4982715;28;101920;-67
2022/01/11 08:53:40;;;;;;;36.30;22.67;;;;;;;;;;4983878;28;100191;-67
2022/01/11 08:56:15;;;;;;;41.72;23.98;;;;;;;;;;4982731;28;102596;-67
2022/01/11 08:58:42;;;;;;;39.38;22.95;;;;;;;;;;4985614;28;100655;-67
2022/01/11 09:01:10;;;;;;;41.08;24.85;;;;;;;;;;4986696;28;98720;-67
2022/01/11 09:03:38;;;;;;;38.67;22.98;;;;;;;;;;5015236;27;101929;-67
2022/01/11 09:06:08;;;;;;;41.25;22.90;;;;;;;;;;4976847;28;98666;-67
2022/01/11 09:08:35;;;;;;;37.85;23.13;;;;;;;;;;4975752;28;99439;-68
2022/01/11 09:11:04;;;;;;;40.25;23.75;;;;;;;;;;4976795;28;101125;-70
2022/01/11 09:13:31;;;;;;;38.17;22.02;;;;;;;;;;5013140;27;98606;-68
2022/01/11 09:15:57;;;;;;;32.05;20.33;;;;;;;;;;4985754;28;99200;-68
2022/01/11 09:18:24;;;;;;;34.80;21.85;;;;;;;;;;4989304;28;101533;-68
2022/01/11 09:20:51;;;;;;;36.90;22.83;;;;;;;;;;4986032;28;98811;-68
2022/01/11 09:23:19;;;;;;;37.78;21.00;;;;;;;;;;4989533;28;101495;-69
2022/01/11 09:25:47;;;;;;;31.88;21.25;;;;;;;;;;4985103;28;98451;-69
2022/01/11 09:28:16;;;;;;;33.60;22.45;;;;;;;;;;4981713;28;101072;-68
2022/01/11 09:30:44;;;;;;;32.70;21.08;;;;;;;;;;4983645;28;101947;-69
2022/01/11 09:33:13;;;;;;;34.33;22.40;;;;;;;;;;4982883;28;100836;-68
2022/01/11 09:35:40;;;;;;;41.70;24.25;;;;;;;;;;5013312;28;102633;-68
2022/01/11 09:38:14;;;;;;;35.25;20.02;;;;;;;;;;4987637;28;101789;-69
2022/01/11 09:40:43;;;;;;;32.42;20.92;;;;;;;;;;4986629;28;98590;-69
2022/01/11 09:43:11;;;;;;;33.30;21.05;;;;;;;;;;4987341;28;99037;-69
2022/01/11 09:45:41;;;;;;;31.73;20.05;;;;;;;;;;4989568;28;101466;-69
2022/01/11 09:48:08;;;;;;;32.85;20.85;;;;;;;;;;4984197;28;99604;-69
2022/01/11 09:50:39;;;;;;;31.48;21.60;;;;;;;;;;5004997;27;101233;-70
2022/01/11 09:53:08;;;;;;;27.48;18.73;;;;;;;;;;5006699;28;100510;-69
2022/01/11 09:55:39;;;;;;;34.08;20.67;;;;;;;;;;4975201;28;101619;-69
2022/01/11 09:58:07;;;;;;;28.60;17.23;;;;;;;;;;4969956;28;100591;-69
2022/01/11 10:00:56;;;;;;;29.33;20.55;;;;;;;;;;4981130;28;99139;-68
2022/01/11 10:03:55;;;;;;;23.65;17.30;;;;;;;;;;4972109;28;98657;-68
2022/01/11 10:06:25;;;;;;;27.17;19.00;;;;;;;;;;4972561;28;101705;-68
2022/01/11 10:09:06;;;;;;;33.92;20.30;;;;;;;;;;4979110;28;99061;-68
2022/01/11 10:11:33;;;;;;;29.58;19.45;;;;;;;;;;5001836;27;100521;-68
2022/01/11 10:14:15;;;;;;;26.58;18.70;;;;;;;;;;4979007;28;99035;-68
2022/01/11 10:16:42;;;;;;;30.83;18.45;;;;;;;;;;4986402;28;101928;-68
2022/01/11 10:19:20;;;;;;;28.70;18.52;;;;;;;;;;4977851;28;101779;-68
2022/01/11 10:21:47;;;;;;;34.45;19.27;;;;;;;;;;4972321;28;99401;-68
2022/01/11 10:24:23;;;;;;;25.97;18.50;;;;;;;;;;4991068;28;100101;-68
2022/01/11 10:26:53;;;;;;;26.92;18.10;;;;;;;;;;4979183;28;101620;-68
2022/01/11 10:29:37;;;;;;;31.00;19.85;;;;;;;;;;4980053;28;99468;-69
2022/01/11 10:32:30;;;;;;;24.13;18.13;;;;;;;;;;4998473;28;99969;-68
2022/01/11 10:35:04;;;;;;;28.88;18.80;;;;;;;;;;4970775;28;99398;-68
2022/01/11 10:37:35;;;;;;;26.77;19.42;;;;;;;;;;4981356;28;99136;-68
2022/01/11 10:40:03;;;;;;;;;;;;;;;;;;4990932;28;99669;-68
2022/01/11 10:42:33;;;;;;;29.67;18.83;;;;;;;;;;4983869;28;103419;-68
2022/01/11 10:45:06;;;;;;;29.15;19.00;;;;;;;;;;4973957;28;99525;-68
2022/01/11 10:47:35;;;;;;;;;;;;;;;;;;4969685;28;101556;-68
2022/01/11 10:50:07;;;;;;;34.50;18.73;;;;;;;;;;4994293;28;99736;-68
2022/01/11 10:52:35;;;;;;;29.30;17.75;;;;;;;;;;4975874;28;100650;-68
2022/01/11 10:55:11;;;;;;;25.80;18.10;;;;;;;;;;5006975;27;100218;-68
2022/01/11 10:57:38;;;;;;;26.85;17.58;;;;;;;;;;4974937;28;99150;-68
2022/01/11 11:00:13;;;;;;;25.00;16.98;;;;;;;;;;4976038;28;101487;-68
2022/01/11 11:02:41;;;;;;;27.20;17.67;;;;;;;;;;4984370;28;99782;-70
2022/01/11 11:05:19;;;;;;;26.52;18.15;;;;;;;;;;4966962;28;99148;-69
2022/01/11 11:07:54;;;;;;;28.42;18.20;;;;;;;;;;4992547;28;101039;-68
2022/01/11 11:10:29;;;;;;;22.83;16.65;;;;;;;;;;4967075;28;98659;-68
2022/01/11 11:12:56;;;;;;;20.23;15.18;;;;;;;;;;4980424;28;102009;-69
2022/01/11 11:15:29;;;;;;;23.15;17.10;;;;;;;;;;4996772;28;102796;-69
2022/01/11 11:18:20;;;;;;;27.38;16.80;;;;;;;;;;4988209;28;102416;-69
2022/01/11 11:20:47;;;;;;;25.75;15.13;;;;;;;;;;4977292;28;102209;-69
2022/01/11 11:23:15;;;;;;;24.00;16.42;;;;;;;;;;4983197;28;98678;-69
2022/01/11 11:25:41;;;;;;;24.70;16.42;;;;;;;;;;4976989;28;99248;-69
2022/01/11 11:28:07;;;;;;;27.83;17.15;;;;;;;;;;4972154;28;99318;-70
2022/01/11 11:30:34;;;;;;;28.17;14.75;;;;;;;;;;4980458;28;99250;-69
2022/01/11 11:33:00;;;;;;;26.80;17.42;;;;;;;;;;4975680;28;99200;-69
2022/01/11 11:35:28;;;;;;;23.10;17.20;;;;;;;;;;4973396;28;102440;-69
2022/01/11 11:37:57;;;;;;;23.33;16.63;;;;;;;;;;4971338;28;98664;-69
2022/01/11 11:40:25;;;;;;;21.92;14.85;;;;;;;;;;4967738;28;100952;-69
2022/01/11 11:42:53;;;;;;;23.33;15.65;;;;;;;;;;4976309;28;98529;-69
2022/01/11 11:45:23;;;;;;;23.92;17.02;;;;;;;;;;4973607;28;100378;-70
2022/01/11 11:47:50;;;;;;;25.95;17.42;;;;;;;;;;4973866;28;100406;-69
2022/01/11 11:50:18;;;;;;;22.67;16.80;;;;;;;;;;4968921;28;99183;-69
2022/01/11 11:52:46;;;;;;;25.55;16.58;;;;;;;;;;4969027;28;100372;-69
2022/01/11 11:55:23;;;;;;;25.25;15.88;;;;;;;;;;4969309;28;99209;-69
2022/01/11 11:57:55;;;;;;;25.63;15.75;;;;;;;;;;4967664;28;97869;-69
2022/01/11 12:00:23;;;;;;;21.55;16.88;;;;;;;;;;4979834;28;99496;-69
2022/01/11 12:03:00;;;;;;;29.25;16.90;;;;;;;;;;4974013;28;99236;-69
2022/01/11 12:05:37;;;;;;;25.55;16.10;;;;;;;;;;4975712;28;99500;-69
2022/01/11 12:08:22;;;;;;;28.23;16.67;;;;;;;;;;4969222;28;100260;-69
2022/01/11 12:10:52;;;;;;;23.50;15.45;;;;;;;;;;4975480;28;98679;-69
2022/01/11 12:13:38;;;;;;;22.67;15.48;;;;;;;;;;4969561;28;100121;-70
2022/01/11 12:16:23;;;;;;;22.63;17.17;;;;;;;;;;4983951;28;99420;-69
2022/01/11 12:18:51;;;;;;;25.55;14.63;;;;;;;;;;4978163;28;99015;-69
2022/01/11 12:21:18;;;;;;;29.23;16.95;;;;;;;;;;4968806;28;99233;-69
2022/01/11 12:23:44;;;;;;;21.70;15.80;;;;;;;;;;4973762;28;98856;-69
2022/01/11 12:26:16;;;;;;;22.98;15.32;;;;;;;;;;4970395;28;101088;-68
2022/01/11 12:28:43;;;;;;;28.30;15.73;;;;;;;;;;4976707;28;100922;-69
2022/01/11 12:31:23;;;;;;;28.88;16.33;;;;;;;;;;4969509;28;99617;-68
2022/01/11 12:33:49;;;;;;;23.08;15.75;;;;;;;;;;4970375;28;100455;-69
2022/01/11 12:36:15;;;;;;;22.25;15.02;;;;;;;;;;4977005;28;100379;-68
2022/01/11 12:38:58;;;;;;;20.48;12.52;;;;;;;;;;4970358;28;98637;-68
2022/01/11 12:41:25;;;;;;;;;;;;;;;;;;4969570;28;100538;-68
2022/01/11 12:44:13;;;;;;;25.35;13.70;;;;;;;;;;4970597;28;129836;-69
2022/01/11 12:46:59;;;;;;;22.38;13.95;;;;;;;;;;4978669;28;100181;-68
2022/01/11 12:49:26;;;;;;;16.13;12.27;;;;;;;;;;4985965;28;98715;-69
2022/01/11 12:52:09;;;;;;;21.02;13.93;;;;;;;;;;4973517;28;100164;-69
2022/01/11 12:54:40;;;;;;;18.83;13.10;;;;;;;;;;4976590;28;99228;-69
2022/01/11 12:57:14;;;;;;;19.17;12.98;;;;;;;;;;4969259;28;100911;-68
2022/01/11 12:59:50;;;;;;;19.35;11.80;;;;;;;;;;4974337;28;99291;-69
2022/01/11 13:02:18;;;;;;;20.33;13.55;;;;;;;;;;4976001;28;101704;-68
2022/01/11 13:04:47;;;;;;;18.55;11.20;;;;;;;;;;4969482;28;100228;-69
2022/01/11 13:07:16;;;;;;;24.17;13.35;;;;;;;;;;4984876;28;98656;-68
2022/01/11 13:09:45;;;;;;;18.42;12.90;;;;;;;;;;4970233;28;100956;-68
2022/01/11 13:12:27;;;;;;;17.70;12.57;;;;;;;;;;4969931;28;99704;-68
2022/01/11 13:15:18;;;;;;;19.55;13.98;;;;;;;;;;4978799;28;100039;-68
2022/01/11 13:17:54;;;;;;;20.25;12.93;;;;;;;;;;4969003;28;100332;-68
2022/01/11 13:20:42;;;;;;;18.13;12.73;;;;;;;;;;4977878;28;99022;-68
2022/01/11 13:23:18;;;;;;;19.65;11.85;;;;;;;;;;4982496;28;100817;-69
2022/01/11 13:25:52;;;;;;;18.10;13.60;;;;;;;;;;4969046;28;101301;-69
2022/01/11 13:28:20;;;;;;;22.92;13.38;;;;;;;;;;4976293;28;99982;-69
2022/01/11 13:30:50;;;;;;;18.08;12.13;;;;;;;;;;4972879;28;100050;-68
2022/01/11 13:33:24;;;;;;;18.15;12.05;;;;;;;;;;4968376;28;98565;-68
2022/01/11 13:35:51;;;;;;;18.52;13.07;;;;;;;;;;4977644;28;100377;-69
2022/01/11 13:38:18;;;;;;;19.13;12.88;;;;;;;;;;4980894;28;99456;-68
2022/01/11 13:40:45;;;;;;;17.67;11.85;;;;;;;;;;4969288;28;97834;-68
2022/01/11 13:43:13;;;;;;;16.38;11.35;;;;;;;;;;4974096;28;99306;-68
2022/01/11 13:45:41;;;;;;;19.23;12.00;;;;;;;;;;4967473;28;99647;-68
2022/01/11 13:48:09;;;;;;;21.05;11.80;;;;;;;;;;4973206;28;99649;-68
2022/01/11 13:50:47;;;;;;;17.45;11.90;;;;;;;;;;4971543;28;101107;-69
2022/01/11 13:53:24;;;;;;;19.77;12.07;;;;;;;;;;4983842;28;100273;-68
2022/01/11 13:55:53;;;;;;;16.23;11.68;;;;;;;;;;4976988;28;99318;-69
2022/01/11 13:58:25;;;;;;;15.13;9.70;;;;;;;;;;4976283;28;100388;-68
2022/01/11 14:00:51;;;;;;;16.73;11.38;;;;;;;;;;4973102;28;100149;-68
2022/01/11 14:03:19;;;;;;;13.77;10.13;;;;;;;;;;4984536;28;99301;-68
2022/01/11 14:05:45;;;;;;;15.50;10.95;;;;;;;;;;4983096;28;99154;-68
2022/01/11 14:08:12;;;;;;;15.57;10.60;;;;;;;;;;4974914;28;98780;-68
2022/01/11 14:10:53;;;;;;;15.00;10.90;;;;;;;;;;4980568;28;99916;-69
2022/01/11 14:13:19;;;;;;;15.50;10.13;;;;;;;;;;4970778;28;101295;-69
2022/01/11 14:15:45;;;;;;;13.10;9.88;;;;;;;;;;4971903;28;98559;-69
2022/01/11 14:18:14;;;;;;;14.73;9.73;;;;;;;;;;4973973;28;100802;-68
2022/01/11 14:20:41;;;;;;;24.40;14.07;;;;;;;;;;4968205;28;100009;-69
2022/01/11 14:23:09;;;;;;;15.63;12.60;;;;;;;;;;4968782;28;99979;-68
2022/01/11 14:25:38;;;;;;;21.00;11.55;;;;;;;;;;4983072;28;99359;-69